Time;durP1;ratioP1;P1;durP2;ratioP2;P2;SDS_P1;SDS_P2;PMS_P1;PMS_P2;Temp;Humidity;BMP_temperature;BMP_pressure;BME280_temperature;BME280_humidity;BME280_pressure;Samples;Min_cycle;Max_cycle;Signal;HPM_P1;HPM_P2
2022/08/31 00:07:13;;;;;;;0.00;0.00;;;;;;;18.57;50.01;102261.44;7253943;19;2004745;-59
2022/08/31 00:09:39;;;;;;;0.00;0.00;;;;;;;18.53;51.44;102257.16;7356630;19;20797;-59
2022/08/31 00:12:05;;;;;;;0.00;0.00;;;;;;;18.51;52.60;102256.34;7358469;19;20105;-60
2022/08/31 00:14:30;;;;;;;0.00;0.00;;;;;;;18.50;52.27;102249.28;7356933;19;20015;-59
2022/08/31 00:16:56;;;;;;;0.00;0.00;;;;;;;18.48;51.24;102245.84;7355996;19;20015;-60
2022/08/31 00:19:22;;;;;;;0.00;0.00;;;;;;;18.45;52.50;102251.22;7356657;19;20022;-59
2022/08/31 00:21:49;;;;;;;0.00;0.00;;;;;;;18.44;53.23;102247.69;7358424;19;20011;-60
2022/08/31 00:24:15;;;;;;;0.00;0.00;;;;;;;18.28;53.24;102220.88;7356165;19;20002;-59
2022/08/31 00:26:41;;;;;;;0.00;0.00;;;;;;;18.41;52.86;102246.03;7356711;19;20035;-59
2022/08/31 00:29:07;;;;;;;0.00;0.00;;;;;;;18.40;53.08;102246.97;7357572;19;20970;-60
2022/08/31 00:31:32;;;;;;;0.00;0.00;;;;;;;18.40;52.92;102244.31;7355011;19;20007;-59
2022/08/31 00:34:00;;;;;;;0.00;0.00;;;;;;;18.38;53.77;102238.19;7357545;19;20847;-59
2022/08/31 00:36:26;;;;;;;;;;;;;;;18.38;50.22;102246.13;7356157;19;20070;-60
2022/08/31 00:38:52;;;;;;;0.00;0.00;;;;;;;18.34;53.27;102249.75;7357120;19;20002;-60
2022/08/31 00:41:21;;;;;;;0.00;0.00;;;;;;;18.32;53.06;102251.59;7352197;19;20006;-60
2022/08/31 00:43:53;;;;;;;0.00;0.00;;;;;;;18.31;53.52;102244.59;7357083;19;20098;-60
2022/08/31 00:46:28;;;;;;;0.00;0.00;;;;;;;18.28;52.37;102247.31;7355175;19;20023;-60
2022/08/31 00:48:57;;;;;;;0.00;0.00;;;;;;;18.26;53.33;102246.50;7357193;19;20024;-60
2022/08/31 00:51:30;;;;;;;0.00;0.00;;;;;;;18.24;53.21;102245.66;7357143;19;20419;-60
2022/08/31 00:53:59;;;;;;;0.00;0.00;;;;;;;18.20;54.36;102241.41;7356264;19;20625;-60
2022/08/31 00:56:25;;;;;;;0.00;0.00;;;;;;;18.15;53.85;102238.91;7355422;19;20463;-59
2022/08/31 00:58:58;;;;;;;0.00;0.00;;;;;;;18.16;54.61;102245.03;7356088;19;20029;-59
2022/08/31 01:01:28;;;;;;;0.00;0.00;;;;;;;18.14;53.89;102244.22;7355374;19;20715;-59
2022/08/31 01:03:56;;;;;;;0.00;0.00;;;;;;;18.12;54.30;102254.84;7355626;19;20010;-60
2022/08/31 01:06:32;;;;;;;0.00;0.00;;;;;;;18.07;53.67;102251.47;7357152;19;20010;-59
2022/08/31 01:09:02;;;;;;;0.05;0.05;;;;;;;17.99;53.49;102242.88;7360219;19;20019;-60
2022/08/31 01:11:28;;;;;;;0.00;0.00;;;;;;;18.05;53.38;102258.59;7363366;19;20032;-60
2022/08/31 01:13:57;;;;;;;0.00;0.00;;;;;;;18.01;54.99;102256.06;7362820;19;20014;-60
2022/08/31 01:16:34;;;;;;;0.00;0.00;;;;;;;17.98;52.95;102264.06;7361896;19;20032;-59
2022/08/31 01:19:07;;;;;;;;;;;;;;;17.93;51.04;102268.63;7362774;19;20613;-60
2022/08/31 01:22:01;;;;;;;0.00;0.00;;;;;;;17.86;51.90;102267.94;7360176;19;19938;-60
2022/08/31 01:24:27;;;;;;;0.00;0.00;;;;;;;17.75;54.29;102276.16;7258282;19;2004427;-60
2022/08/31 01:26:54;;;;;;;0.00;0.00;;;;;;;17.70;55.78;102272.75;7363592;19;20023;-60
2022/08/31 01:29:21;;;;;;;0.00;0.00;;;;;;;17.61;56.51;102273.88;7360059;19;20011;-60
2022/08/31 01:31:49;;;;;;;;;;;;;;;17.55;51.00;102273.16;7364181;19;20007;-59
2022/08/31 01:34:14;;;;;;;0.00;0.00;;;;;;;17.47;57.44;102269.84;7358812;19;19923;-59
2022/08/31 01:36:42;;;;;;;0.00;0.00;;;;;;;17.44;57.17;102269.97;7363931;19;20031;-60
2022/08/31 01:39:11;;;;;;;0.00;0.00;;;;;;;17.41;57.27;102272.66;7358611;19;20031;-60
2022/08/31 01:41:44;;;;;;;0.00;0.00;;;;;;;17.40;55.88;102277.09;7361229;19;20006;-59
2022/08/31 01:44:12;;;;;;;0.00;0.00;;;;;;;17.27;57.17;102250.09;7360905;19;20574;-59
2022/08/31 01:46:38;;;;;;;0.00;0.00;;;;;;;17.41;57.03;102270.03;7359989;19;20010;-58
2022/08/31 01:49:06;;;;;;;0.00;0.00;;;;;;;17.41;57.03;102270.88;7359073;19;20035;-59
2022/08/31 01:51:31;;;;;;;0.00;0.00;;;;;;;17.43;56.65;102269.06;7361775;19;20128;-60
2022/08/31 01:53:57;;;;;;;0.00;0.00;;;;;;;17.43;56.52;102263.78;7359699;19;20621;-60
2022/08/31 01:56:30;;;;;;;0.00;0.00;;;;;;;17.45;56.42;102255.84;7362503;19;20014;-60
2022/08/31 01:58:58;;;;;;;0.00;0.00;;;;;;;17.45;55.92;102250.56;7351353;19;20036;-59
2022/08/31 02:01:30;;;;;;;0.00;0.00;;;;;;;17.45;55.50;102247.91;7361457;19;20015;-59
2022/08/31 02:03:56;;;;;;;0.00;0.00;;;;;;;17.42;55.83;102254.13;7361917;19;20011;-60
2022/08/31 02:06:24;;;;;;;0.00;0.00;;;;;;;17.38;56.03;102248.06;7361336;19;20036;-60
2022/08/31 02:08:49;;;;;;;0.00;0.00;;;;;;;17.38;56.02;102250.69;7362310;19;20002;-60
2022/08/31 02:11:17;;;;;;;0.00;0.00;;;;;;;17.36;56.28;102249.00;7360282;19;20114;-59
2022/08/31 02:13:42;;;;;;;;;;;;;;;17.37;53.19;102254.25;7359474;19;20017;-60
2022/08/31 02:16:08;;;;;;;0.00;0.00;;;;;;;17.32;55.65;102250.84;7361513;19;19914;-60
2022/08/31 02:18:37;;;;;;;0.00;0.00;;;;;;;17.31;55.96;102248.28;7358602;19;20007;-60
2022/08/31 02:21:03;;;;;;;0.00;0.00;;;;;;;17.27;55.60;102242.19;7358904;19;20010;-59
2022/08/31 02:23:28;;;;;;;0.00;0.00;;;;;;;17.12;56.44;102222.31;7360744;19;20025;-60
2022/08/31 02:25:58;;;;;;;0.00;0.00;;;;;;;17.23;55.89;102240.53;7360628;19;20027;-59
2022/08/31 02:28:24;;;;;;;0.00;0.00;;;;;;;17.20;55.81;102245.91;7360380;19;20018;-60
2022/08/31 02:30:49;;;;;;;0.00;0.00;;;;;;;17.17;55.62;102239.81;7363104;19;20044;-60
2022/08/31 02:33:17;;;;;;;0.00;0.00;;;;;;;17.15;55.34;102241.66;7359357;19;20063;-60
2022/08/31 02:35:45;;;;;;;;;;;;;;;17.13;52.90;102236.38;7361885;19;20003;-60
2022/08/31 02:38:11;;;;;;;0.00;0.00;;;;;;;17.08;56.24;102233.00;7358672;19;19927;-60
2022/08/31 02:40:37;;;;;;;0.00;0.00;;;;;;;17.04;56.34;102228.72;7357472;19;20114;-60
2022/08/31 02:43:09;;;;;;;0.00;0.00;;;;;;;17.02;56.68;102225.25;7359160;19;20006;-60
2022/08/31 02:45:39;;;;;;;0.00;0.00;;;;;;;16.98;56.82;102229.75;7358773;19;20011;-60
2022/08/31 02:48:11;;;;;;;0.00;0.00;;;;;;;16.97;56.51;102237.69;7359212;19;20014;-60
2022/08/31 02:50:47;;;;;;;0.00;0.00;;;;;;;16.91;56.44;102236.06;7358801;19;20014;-60
2022/08/31 02:53:18;;;;;;;0.00;0.00;;;;;;;16.86;56.19;102230.03;7358982;19;20028;-59
2022/08/31 02:55:43;;;;;;;0.00;0.00;;;;;;;16.92;56.63;102244.84;7358695;19;20025;-60
2022/08/31 02:58:12;;;;;;;0.00;0.00;;;;;;;16.90;56.75;102241.41;7359808;19;20031;-60
2022/08/31 03:00:41;;;;;;;0.00;0.00;;;;;;;16.87;56.38;102234.41;7359804;19;20014;-60
2022/08/31 03:03:07;;;;;;;0.00;0.00;;;;;;;16.86;57.05;102230.03;7353088;19;20014;-60
2022/08/31 03:05:34;;;;;;;0.00;0.00;;;;;;;16.82;58.20;102234.50;7358781;19;20500;-60
2022/08/31 03:08:07;;;;;;;;;;;;;;;16.82;54.49;102234.50;7359941;19;20873;-60
2022/08/31 03:10:35;;;;;;;0.00;0.00;;;;;;;16.80;57.98;102236.34;7361510;19;20598;-60
2022/08/31 03:13:03;;;;;;;0.00;0.00;;;;;;;16.77;58.10;102235.53;7361300;19;20366;-59
2022/08/31 03:15:31;;;;;;;0.08;0.08;;;;;;;16.76;57.65;102229.41;7364062;19;20010;-59
2022/08/31 03:17:56;;;;;;;0.00;0.00;;;;;;;16.61;57.15;102214.75;7357583;19;21344;-60
2022/08/31 03:20:24;;;;;;;0.00;0.00;;;;;;;16.74;57.29;102230.34;7360660;19;20085;-60
2022/08/31 03:22:50;;;;;;;0.00;0.00;;;;;;;16.70;57.26;102229.50;7364683;19;20044;-60
2022/08/31 03:25:18;;;;;;;0.00;0.00;;;;;;;16.58;57.05;102208.72;7359566;19;20019;-60
2022/08/31 03:27:44;;;;;;;0.00;0.00;;;;;;;16.66;57.35;102226.97;7365112;19;20041;-60
2022/08/31 03:30:13;;;;;;;0.00;0.00;;;;;;;16.62;56.74;102226.19;7362220;19;20461;-59
2022/08/31 03:32:39;;;;;;;0.00;0.00;;;;;;;16.62;57.30;102231.44;7365053;19;20011;-60
2022/08/31 03:35:05;;;;;;;0.00;0.00;;;;;;;16.59;57.56;102226.28;7362472;19;20010;-59
2022/08/31 03:37:31;;;;;;;0.00;0.00;;;;;;;16.58;57.45;102235.09;7363203;19;20836;-60
2022/08/31 03:39:59;;;;;;;0.00;0.00;;;;;;;16.47;56.90;102219.50;7362412;19;20026;-60
2022/08/31 03:42:26;;;;;;;0.00;0.00;;;;;;;16.45;57.25;102217.81;7364252;19;20086;-60
2022/08/31 03:44:54;;;;;;;0.00;0.00;;;;;;;16.46;57.75;102232.72;7362892;19;20030;-60
2022/08/31 03:47:22;;;;;;;0.00;0.00;;;;;;;16.53;57.14;102242.25;7364821;19;20019;-60
2022/08/31 03:49:47;;;;;;;0.00;0.00;;;;;;;16.47;56.99;102232.69;7360523;19;20349;-59
2022/08/31 03:52:13;;;;;;;0.00;0.00;;;;;;;16.48;56.75;102238.84;7363815;19;20011;-60
2022/08/31 03:54:42;;;;;;;0.00;0.00;;;;;;;16.46;56.79;102240.63;7362808;19;20074;-60
2022/08/31 03:57:08;;;;;;;0.00;0.00;;;;;;;16.44;56.54;102242.44;7361662;19;20082;-60
2022/08/31 03:59:38;;;;;;;0.00;0.00;;;;;;;16.42;56.29;102242.47;7363602;19;20425;-59
2022/08/31 04:02:21;;;;;;;0.00;0.00;;;;;;;16.40;56.79;102246.03;7361806;19;20023;-60
2022/08/31 04:04:53;;;;;;;0.00;0.00;;;;;;;16.25;56.21;102223.53;7362648;19;20525;-60
2022/08/31 04:07:22;;;;;;;0.00;0.00;;;;;;;16.32;56.37;102239.19;7362784;19;20098;-60
2022/08/31 04:09:48;;;;;;;0.00;0.00;;;;;;;16.31;56.74;102241.84;7361597;19;20022;-60
2022/08/31 04:12:15;;;;;;;0.00;0.00;;;;;;;16.20;56.71;102222.75;7363463;19;20006;-60
2022/08/31 04:14:43;;;;;;;0.00;0.00;;;;;;;16.27;56.41;102235.78;7361090;19;20566;-60
2022/08/31 04:17:10;;;;;;;0.00;0.00;;;;;;;16.27;56.87;102232.25;7364295;19;20977;-59
2022/08/31 04:19:40;;;;;;;0.00;0.00;;;;;;;16.19;56.42;102232.44;7361233;19;20703;-60
2022/08/31 04:22:06;;;;;;;0.00;0.00;;;;;;;16.24;56.69;102246.38;7363834;19;20488;-60
2022/08/31 04:24:32;;;;;;;0.00;0.00;;;;;;;16.21;56.49;102241.16;7361161;19;20040;-60
2022/08/31 04:26:58;;;;;;;0.00;0.00;;;;;;;16.18;56.49;102233.34;7362989;19;20002;-60
2022/08/31 04:29:23;;;;;;;0.00;0.00;;;;;;;16.17;56.37;102228.09;7360637;19;20663;-60
2022/08/31 04:31:51;;;;;;;0.00;0.00;;;;;;;16.14;56.57;102234.31;7361791;19;20018;-60
2022/08/31 04:34:18;;;;;;;0.00;0.00;;;;;;;16.10;56.08;102237.91;7361305;19;20711;-60
2022/08/31 04:36:44;;;;;;;;;;;;;;;16.13;54.14;102248.38;7362131;19;20500;-60
2022/08/31 04:39:13;;;;;;;0.00;0.00;;;;;;;16.07;56.01;102244.13;7361452;19;19922;-60
2022/08/31 04:41:44;;;;;;;0.00;0.00;;;;;;;16.06;56.32;102244.13;7361806;19;20018;-60
2022/08/31 04:44:10;;;;;;;0.00;0.00;;;;;;;16.03;56.44;102242.44;7369135;19;20006;-60
2022/08/31 04:46:37;;;;;;;0.00;0.00;;;;;;;16.01;56.79;102246.00;7367412;19;20051;-60
2022/08/31 04:49:03;;;;;;;0.00;0.00;;;;;;;15.99;56.90;102247.81;7367288;19;20018;-60
2022/08/31 04:51:35;;;;;;;0.00;0.00;;;;;;;15.98;56.81;102248.72;7368490;19;20010;-60
2022/08/31 04:54:03;;;;;;;0.00;0.00;;;;;;;15.88;57.48;102233.97;7367742;19;20025;-60
2022/08/31 04:56:31;;;;;;;0.00;0.00;;;;;;;15.96;57.62;102251.34;7367386;19;20098;-60
2022/08/31 04:59:09;;;;;;;0.00;0.00;;;;;;;15.93;56.79;102242.66;7368640;19;20117;-60
2022/08/31 05:01:39;;;;;;;0.00;0.00;;;;;;;15.97;57.96;102246.97;7366764;19;20025;-60
2022/08/31 05:04:06;;;;;;;0.00;0.00;;;;;;;15.95;58.44;102249.63;7367239;19;20014;-60
2022/08/31 05:06:34;;;;;;;0.08;0.08;;;;;;;15.98;57.91;102251.34;7368503;19;20592;-60
2022/08/31 05:09:05;;;;;;;0.00;0.00;;;;;;;15.99;58.07;102256.56;7367413;19;20356;-60
2022/08/31 05:11:30;;;;;;;0.00;0.00;;;;;;;15.85;58.36;102234.03;7367592;19;20018;-60
2022/08/31 05:13:58;;;;;;;0.00;0.00;;;;;;;16.00;58.11;102257.44;7366087;19;20015;-60
2022/08/31 05:16:24;;;;;;;0.00;0.00;;;;;;;15.94;58.18;102245.25;7366743;19;20074;-60
2022/08/31 05:18:52;;;;;;;0.00;0.00;;;;;;;15.99;58.21;102259.22;7368291;19;20909;-60
2022/08/31 05:21:27;;;;;;;0.00;0.00;;;;;;;16.01;58.18;102256.53;7366788;19;20077;-60
2022/08/31 05:23:58;;;;;;;0.00;0.00;;;;;;;16.00;58.40;102260.94;7366184;19;20467;-60
2022/08/31 05:26:27;;;;;;;0.00;0.00;;;;;;;16.02;58.36;102263.56;7366621;19;20006;-59
2022/08/31 05:28:53;;;;;;;0.00;0.00;;;;;;;16.00;58.35;102262.69;7367099;19;20006;-60
2022/08/31 05:31:22;;;;;;;0.00;0.00;;;;;;;16.00;58.35;102262.69;7367220;19;20039;-60
2022/08/31 05:33:50;;;;;;;0.00;0.00;;;;;;;16.00;57.98;102267.97;7367402;19;20038;-60
2022/08/31 05:36:16;;;;;;;0.00;0.00;;;;;;;15.98;58.04;102259.25;7364917;19;20025;-60
2022/08/31 05:38:42;;;;;;;0.00;0.00;;;;;;;15.95;57.82;102265.44;7368138;19;20838;-60
2022/08/31 05:41:10;;;;;;;0.00;0.00;;;;;;;15.96;58.17;102266.28;7365746;19;20133;-60
2022/08/31 05:43:37;;;;;;;0.00;0.00;;;;;;;15.93;58.04;102271.63;7367381;19;20010;-60
2022/08/31 05:46:10;;;;;;;0.00;0.00;;;;;;;15.91;57.47;102268.16;7366509;19;20014;-60
2022/08/31 05:48:36;;;;;;;0.00;0.00;;;;;;;15.86;58.24;102265.59;7365231;19;20024;-60
2022/08/31 05:51:05;;;;;;;0.00;0.00;;;;;;;15.87;57.99;102261.22;7366748;19;21711;-60
2022/08/31 05:53:39;;;;;;;0.00;0.00;;;;;;;15.83;57.82;102266.56;7366268;19;20055;-59
2022/08/31 05:56:16;;;;;;;0.00;0.00;;;;;;;15.82;57.52;102267.44;7366881;19;20007;-60
2022/08/31 05:58:43;;;;;;;0.00;0.00;;;;;;;15.79;58.25;102264.00;7356120;19;20018;-60
2022/08/31 06:01:17;;;;;;;0.00;0.00;;;;;;;15.79;57.26;102264.00;7365925;19;20013;-60
2022/08/31 06:03:44;;;;;;;0.00;0.00;;;;;;;15.75;58.44;102263.19;7362766;19;20026;-60
2022/08/31 06:06:10;;;;;;;0.00;0.00;;;;;;;15.74;58.22;102272.00;7362516;19;20078;-60
2022/08/31 06:08:39;;;;;;;0.00;0.00;;;;;;;15.73;57.97;102267.63;7364630;19;20488;-60
2022/08/31 06:11:07;;;;;;;0.00;0.00;;;;;;;15.72;57.86;102257.13;7361440;19;20029;-60
2022/08/31 06:13:32;;;;;;;;;;;;;;;15.72;55.67;102260.63;7363824;19;20018;-60
2022/08/31 06:16:01;;;;;;;0.00;0.00;;;;;;;15.70;57.80;102253.63;7361352;19;19922;-60
2022/08/31 06:18:27;;;;;;;0.00;0.00;;;;;;;15.68;58.31;102258.94;7363248;19;20021;-60
2022/08/31 06:21:08;;;;;;;0.00;0.00;;;;;;;15.63;57.11;102245.00;7362554;19;20034;-60
2022/08/31 06:23:43;;;;;;;0.10;0.10;;;;;;;15.68;57.87;102271.25;7364108;19;20006;-60
2022/08/31 06:26:11;;;;;;;0.00;0.00;;;;;;;15.65;58.36;102266.88;7361213;19;20002;-60
2022/08/31 06:28:39;;;;;;;0.00;0.00;;;;;;;15.64;58.34;102262.53;7362618;19;20026;-60
2022/08/31 06:31:10;;;;;;;0.00;0.00;;;;;;;15.53;58.42;102246.91;7360231;19;20002;-60
2022/08/31 06:33:37;;;;;;;0.00;0.00;;;;;;;15.57;58.75;102253.84;7360383;19;20510;-60
2022/08/31 06:36:09;;;;;;;0.00;0.00;;;;;;;15.68;57.93;102271.25;7360511;19;20086;-60
2022/08/31 06:38:34;;;;;;;0.00;0.00;;;;;;;15.66;58.03;102273.91;7349422;19;20036;-60
2022/08/31 06:41:00;;;;;;;0.00;0.00;;;;;;;15.39;58.42;102227.84;7359314;19;20010;-60
2022/08/31 06:43:25;;;;;;;0.00;0.00;;;;;;;15.71;58.70;102277.34;7364230;19;20374;-60
2022/08/31 06:45:50;;;;;;;0.00;0.00;;;;;;;15.75;58.55;102279.00;7362629;19;20014;-60
2022/08/31 06:48:18;;;;;;;0.00;0.00;;;;;;;15.75;58.58;102279.00;7365215;19;20037;-60
2022/08/31 06:50:54;;;;;;;0.00;0.00;;;;;;;15.75;58.63;102272.84;7359974;19;20014;-60
2022/08/31 06:53:19;;;;;;;0.00;0.00;;;;;;;15.85;59.19;102278.81;7362980;19;20063;-60
2022/08/31 06:55:44;;;;;;;0.00;0.00;;;;;;;15.85;58.86;102286.72;7354777;19;20545;-60
2022/08/31 06:58:10;;;;;;;0.00;0.00;;;;;;;15.91;58.17;102278.69;7364284;19;20040;-60
2022/08/31 07:00:35;;;;;;;0.00;0.00;;;;;;;15.94;57.97;102284.78;7362865;19;20745;-60
2022/08/31 07:03:21;;;;;;;0.00;0.00;;;;;;;15.93;57.73;102274.28;7362647;19;20459;-59
2022/08/31 07:05:53;;;;;;;0.00;0.00;;;;;;;15.94;57.34;102271.59;7361468;19;20090;-60
2022/08/31 07:08:22;;;;;;;0.00;0.00;;;;;;;16.09;57.60;102292.38;7366495;19;20006;-60
2022/08/31 07:10:48;;;;;;;0.00;0.00;;;;;;;16.16;58.89;102295.75;7361340;19;20014;-60
2022/08/31 07:13:13;;;;;;;0.00;0.00;;;;;;;16.22;58.24;102295.63;7364244;19;20433;-60
2022/08/31 07:15:39;;;;;;;0.00;0.00;;;;;;;16.32;57.92;102301.56;7362446;19;20030;-60
2022/08/31 07:18:05;;;;;;;0.00;0.00;;;;;;;16.34;57.33;102283.97;7365291;19;20015;-60
2022/08/31 07:20:30;;;;;;;0.00;0.00;;;;;;;16.43;58.08;102291.69;7359978;19;20011;-60
2022/08/31 07:22:56;;;;;;;0.00;0.00;;;;;;;16.56;59.58;102305.44;7357499;19;20046;-59
2022/08/31 07:25:22;;;;;;;0.00;0.00;;;;;;;16.63;58.58;102304.44;7355483;19;20570;-60
2022/08/31 07:27:49;;;;;;;0.00;0.00;;;;;;;16.72;59.01;102306.00;7364564;19;20018;-60
2022/08/31 07:30:20;;;;;;;0.00;0.00;;;;;;;16.83;59.05;102309.28;7362366;19;20078;-60
2022/08/31 07:32:49;;;;;;;0.00;0.00;;;;;;;16.92;58.41;102308.19;7363264;19;20010;-60
2022/08/31 07:35:17;;;;;;;0.00;0.00;;;;;;;16.98;58.70;102306.28;7360399;19;20078;-60
2022/08/31 07:43:12;;;;;;;0.00;0.00;;;;;;;17.13;58.43;102299.75;7364414;19;20035;-60
2022/08/31 07:45:38;;;;;;;0.00;0.00;;;;;;;17.20;57.57;102308.41;7362833;19;20018;-60
2022/08/31 07:48:04;;;;;;;0.00;0.00;;;;;;;17.22;57.89;102307.44;7364327;19;20020;-60
2022/08/31 07:50:30;;;;;;;0.00;0.00;;;;;;;17.28;58.08;102317.84;7360877;19;20011;-60
2022/08/31 07:52:59;;;;;;;0.00;0.00;;;;;;;17.21;58.31;102299.56;7365471;19;20017;-60
2022/08/31 07:55:34;;;;;;;0.00;0.00;;;;;;;17.37;57.85;102316.75;7359143;19;20014;-60
2022/08/31 07:57:59;;;;;;;0.00;0.00;;;;;;;17.40;57.79;102311.41;7362500;19;20312;-60
2022/08/31 08:00:28;;;;;;;0.00;0.00;;;;;;;17.47;57.86;102312.13;7353996;19;20024;-61
2022/08/31 08:02:54;;;;;;;0.00;0.00;;;;;;;17.50;57.84;102317.31;7361009;19;20010;-61
2022/08/31 08:05:26;;;;;;;0.00;0.00;;;;;;;17.48;57.49;102298.00;7363192;19;20014;-60
2022/08/31 08:07:55;;;;;;;0.00;0.00;;;;;;;17.59;58.22;102312.69;7362287;19;20018;-60
2022/08/31 08:10:23;;;;;;;0.00;0.00;;;;;;;17.63;58.04;102310.78;7359788;19;20045;-60
2022/08/31 08:12:59;;;;;;;0.00;0.00;;;;;;;17.73;57.05;102314.97;7362897;19;20066;-60
2022/08/31 08:15:25;;;;;;;0.00;0.00;;;;;;;17.74;57.89;102322.00;7361293;19;20014;-61
2022/08/31 08:17:58;;;;;;;0.00;0.00;;;;;;;17.78;57.68;102318.34;7368552;19;20006;-60
2022/08/31 08:20:23;;;;;;;0.00;0.00;;;;;;;17.84;56.99;102312.91;7367088;19;20797;-61
2022/08/31 08:22:49;;;;;;;0.00;0.00;;;;;;;17.88;57.02;102317.19;7368843;19;20074;-60
2022/08/31 08:25:15;;;;;;;0.00;0.00;;;;;;;17.94;56.77;102326.72;7370012;19;20416;-61
2022/08/31 08:27:43;;;;;;;0.00;0.00;;;;;;;18.00;56.47;102323.06;7371772;19;20018;-61
2022/08/31 08:30:12;;;;;;;;;;;;;;;18.12;55.25;102320.06;7365853;19;20693;-61
2022/08/31 08:32:41;;;;;;;0.00;0.00;;;;;;;18.11;56.53;102323.63;7368505;19;19915;-60
2022/08/31 08:35:08;;;;;;;0.00;0.00;;;;;;;18.17;56.04;102326.09;7368730;19;20021;-60
2022/08/31 08:37:34;;;;;;;0.00;0.00;;;;;;;18.22;56.17;102328.59;7369232;19;20486;-63
2022/08/31 08:40:03;;;;;;;0.00;0.00;;;;;;;18.28;56.08;102326.66;7361493;19;20014;-64
2022/08/31 08:42:33;;;;;;;0.00;0.00;;;;;;;18.45;55.58;102326.19;7370672;19;20031;-57
2022/08/31 08:45:01;;;;;;;0.00;0.00;;;;;;;18.62;55.20;102317.72;7367607;19;20018;-55
2022/08/31 08:47:31;;;;;;;0.00;0.00;;;;;;;18.90;55.15;102329.19;7365635;19;20022;-55
2022/08/31 08:50:04;;;;;;;0.00;0.00;;;;;;;19.16;54.98;102322.22;7363146;19;20025;-57
2022/08/31 08:52:39;;;;;;;0.00;0.00;;;;;;;19.48;53.82;102321.13;7365462;19;20018;-59
2022/08/31 08:55:08;;;;;;;0.00;0.00;;;;;;;19.76;53.21;102326.38;7360022;19;20047;-59
2022/08/31 08:57:37;;;;;;;0.03;0.00;;;;;;;20.08;53.29;102319.94;7364309;19;20017;-59
2022/08/31 09:00:15;;;;;;;0.00;0.00;;;;;;;20.45;52.32;102322.06;7366498;19;20018;-57
2022/08/31 09:03:02;;;;;;;0.00;0.00;;;;;;;20.73;51.55;102318.34;7368491;19;20597;-58
2022/08/31 09:05:45;;;;;;;0.00;0.00;;;;;;;21.06;51.46;102324.13;7365023;19;20015;-59
2022/08/31 09:08:46;;;;;;;0.00;0.00;;;;;;;21.48;51.06;102320.63;7366274;19;20113;-58
2022/08/31 09:11:40;;;;;;;0.00;0.00;;;;;;;21.84;51.12;102326.13;7259177;19;2004067;-58
2022/08/31 09:14:30;;;;;;;0.00;0.00;;;;;;;22.14;49.78;102312.41;7264074;19;2004721;-57
2022/08/31 09:16:58;;;;;;;0.00;0.00;;;;;;;22.46;48.34;102311.81;7264788;19;2004765;-58
2022/08/31 09:19:23;;;;;;;0.00;0.00;;;;;;;22.74;47.45;102302.50;7363644;19;20006;-57
2022/08/31 09:21:49;;;;;;;0.00;0.00;;;;;;;23.20;47.00;102319.78;7363438;19;20027;-58
2022/08/31 09:24:26;;;;;;;0.00;0.00;;;;;;;23.66;47.45;102312.13;7363535;19;20015;-58
2022/08/31 09:26:53;;;;;;;0.03;0.03;;;;;;;23.84;44.71;102323.66;7364711;19;20121;-58
2022/08/31 09:29:23;;;;;;;0.07;0.07;;;;;;;24.11;45.45;102328.44;7363229;19;20041;-56
2022/08/31 09:32:05;;;;;;;0.00;0.00;;;;;;;24.20;45.89;102309.28;7364891;19;20718;-58
2022/08/31 09:34:40;;;;;;;0.00;0.00;;;;;;;24.30;45.36;102321.16;7364088;19;20028;-58
2022/08/31 09:37:22;;;;;;;0.00;0.00;;;;;;;24.41;45.89;102316.13;7365436;19;20036;-57
2022/08/31 09:39:52;;;;;;;0.00;0.00;;;;;;;24.44;43.37;102323.97;7363468;19;20558;-56
2022/08/31 09:42:30;;;;;;;0.00;0.00;;;;;;;24.65;44.85;102318.38;7362627;19;20698;-58
2022/08/31 09:45:28;;;;;;;0.00;0.00;;;;;;;24.84;44.59;102313.72;7363964;19;20010;-58
2022/08/31 09:48:00;;;;;;;0.00;0.00;;;;;;;24.95;41.57;102310.44;7256700;19;2004713;-58
2022/08/31 09:50:44;;;;;;;0.00;0.00;;;;;;;25.40;43.55;102312.25;7363401;19;20090;-58
2022/08/31 09:56:12;;;;;;;0.00;0.00;;;;;;;26.12;39.98;102306.06;7262710;19;2004607;-58
2022/08/31 09:58:40;;;;;;;0.00;0.00;;;;;;;26.58;39.78;102297.78;7363613;19;20023;-58
2022/08/31 10:01:13;;;;;;;0.00;0.00;;;;;;;27.11;39.39;102306.78;7364672;19;20023;-57
2022/08/31 10:03:44;;;;;;;0.00;0.00;;;;;;;27.53;37.36;102309.38;7354499;19;20027;-58
2022/08/31 10:06:34;;;;;;;0.00;0.00;;;;;;;28.04;38.89;102302.19;7361781;19;20015;-56
2022/08/31 10:09:05;;;;;;;0.00;0.00;;;;;;;28.30;37.19;102296.78;7213698;19;2801147;-59
2022/08/31 10:11:34;;;;;;;0.00;0.00;;;;;;;28.63;36.46;102299.69;7360806;19;20117;-59
2022/08/31 10:14:15;;;;;;;0.00;0.00;;;;;;;29.03;38.50;102299.44;7365903;19;20051;-58
2022/08/31 10:16:51;;;;;;;0.10;0.10;;;;;;;29.48;37.99;102308.50;7366140;19;20015;-59
2022/08/31 10:20:00;;;;;;;0.10;0.10;;;;;;;29.91;37.83;102315.97;7365989;19;20010;-58
2022/08/31 10:22:40;;;;;;;0.00;0.00;;;;;;;30.26;36.29;102297.97;7265564;19;2004364;-56
2022/08/31 10:25:40;;;;;;;0.00;0.00;;;;;;;30.56;35.99;102306.25;7363232;19;20010;-58
2022/08/31 10:28:22;;;;;;;0.05;0.05;;;;;;;30.43;33.00;102278.59;7262636;19;2004540;-58
2022/08/31 10:31:06;;;;;;;0.00;0.00;;;;;;;30.42;34.84;102295.75;7363055;19;20364;-59
2022/08/31 10:36:41;;;;;;;0.10;0.10;;;;;;;30.01;32.60;102288.28;7256881;19;2004468;-57
2022/08/31 10:39:26;;;;;;;0.10;0.10;;;;;;;30.17;34.16;102289.66;7363440;19;20003;-56
2022/08/31 10:41:53;;;;;;;0.10;0.10;;;;;;;30.12;32.29;102280.22;7363234;19;20006;-57
2022/08/31 10:44:35;;;;;;;0.10;0.10;;;;;;;30.32;34.30;102281.31;7364331;19;20014;-57
2022/08/31 10:47:04;;;;;;;0.00;0.00;;;;;;;30.29;33.15;102284.25;7361015;19;20011;-58
2022/08/31 10:49:34;;;;;;;0.00;0.00;;;;;;;30.43;31.87;102281.28;7361449;19;20011;-55
2022/08/31 10:52:24;;;;;;;0.00;0.00;;;;;;;30.55;33.81;102279.41;7360683;19;20006;-57
2022/08/31 10:55:06;;;;;;;0.10;0.10;;;;;;;30.43;33.41;102274.06;7363007;19;20494;-57
2022/08/31 10:57:49;;;;;;;0.00;0.00;;;;;;;30.28;32.74;102269.06;7365879;19;20177;-58
2022/08/31 11:00:44;;;;;;;0.10;0.10;;;;;;;30.29;33.19;102271.63;7362797;19;20044;-56
2022/08/31 11:03:19;;;;;;;0.00;0.00;;;;;;;30.32;32.45;102270.53;7259998;19;2004608;-56
2022/08/31 11:05:59;;;;;;;0.00;0.00;;;;;;;30.37;32.61;102262.94;7365239;19;20010;-56
2022/08/31 11:08:32;;;;;;;0.00;0.00;;;;;;;30.24;32.72;102254.97;7364269;19;20002;-57
2022/08/31 11:11:00;;;;;;;0.10;0.10;;;;;;;30.05;31.71;102252.88;7364148;19;20014;-56
2022/08/31 11:13:47;;;;;;;0.08;0.08;;;;;;;30.13;31.34;102266.63;7363988;19;20115;-55
2022/08/31 11:16:48;;;;;;;0.10;0.10;;;;;;;30.19;32.29;102266.13;7358969;19;20027;-56
2022/08/31 11:19:29;;;;;;;0.10;0.10;;;;;;;30.12;32.92;102259.53;7257063;19;2004163;-56
2022/08/31 11:22:33;;;;;;;0.10;0.10;;;;;;;30.03;32.44;102260.25;7353898;19;20006;-54
2022/08/31 11:25:32;;;;;;;0.00;0.00;;;;;;;29.98;32.56;102262.44;7257075;19;2004666;-56
2022/08/31 11:28:12;;;;;;;0.03;0.03;;;;;;;29.82;31.42;102267.34;7257566;19;2004329;-54
2022/08/31 11:30:45;;;;;;;0.00;0.00;;;;;;;29.84;32.48;102260.84;7358706;19;20074;-56
2022/08/31 11:33:31;;;;;;;0.10;0.10;;;;;;;29.92;33.01;102257.56;7363579;19;20006;-56
2022/08/31 11:36:08;;;;;;;0.00;0.00;;;;;;;30.10;32.76;102256.06;7346509;19;20015;-57
2022/08/31 11:38:53;;;;;;;0.10;0.10;;;;;;;30.33;32.33;102264.16;7342535;19;20006;-57
2022/08/31 11:41:58;;;;;;;0.00;0.00;;;;;;;30.54;33.26;102265.09;7347735;19;20474;-57
2022/08/31 11:44:29;;;;;;;0.00;0.00;;;;;;;30.61;32.30;102265.41;7238071;19;2004418;-56
2022/08/31 11:47:28;;;;;;;0.00;0.00;;;;;;;30.70;32.17;102260.16;7338396;19;20010;-58
2022/08/31 11:50:04;;;;;;;0.10;0.10;;;;;;;30.65;31.51;102259.66;7242204;19;2004647;-56
2022/08/31 11:52:55;;;;;;;0.10;0.10;;;;;;;30.68;31.84;102256.72;7362055;19;20029;-57
2022/08/31 11:55:54;;;;;;;0.00;0.00;;;;;;;30.63;32.03;102258.94;7259265;19;2004763;-57
2022/08/31 11:58:29;;;;;;;0.00;0.00;;;;;;;30.51;31.50;102251.84;7260320;19;2004234;-57
2022/08/31 12:01:27;;;;;;;0.10;0.10;;;;;;;30.45;31.19;102252.34;7357677;19;20009;-57
2022/08/31 12:04:02;;;;;;;0.00;0.00;;;;;;;30.43;31.92;102257.03;7259234;19;2004463;-55